sensor_id;sensor_type;location;lat;lon;timestamp;P1;durP1;ratioP1;P2;durP2;ratioP2
11962;SDS011;62678;52.130;5.584;2024-01-11T00:00:18;19.70;;;10.02;;
11962;SDS011;62678;52.130;5.584;2024-01-11T00:02:45;27.00;;;9.50;;
11962;SDS011;62678;52.130;5.584;2024-01-11T00:05:14;18.30;;;10.02;;
11962;SDS011;62678;52.130;5.584;2024-01-11T00:07:41;18.73;;;9.60;;
11962;SDS011;62678;52.130;5.584;2024-01-11T00:10:09;19.83;;;9.38;;
11962;SDS011;62678;52.130;5.584;2024-01-11T00:12:36;18.13;;;9.75;;
11962;SDS011;62678;52.130;5.584;2024-01-11T00:15:03;22.10;;;10.15;;
11962;SDS011;62678;52.130;5.584;2024-01-11T00:17:30;17.08;;;10.02;;
11962;SDS011;62678;52.130;5.584;2024-01-11T00:19:58;18.02;;;9.68;;
11962;SDS011;62678;52.130;5.584;2024-01-11T00:22:27;15.48;;;9.40;;
11962;SDS011;62678;52.130;5.584;2024-01-11T00:24:54;21.85;;;9.82;;
11962;SDS011;62678;52.130;5.584;2024-01-11T00:27:21;17.48;;;9.70;;
11962;SDS011;62678;52.130;5.584;2024-01-11T00:29:48;17.92;;;9.93;;
11962;SDS011;62678;52.130;5.584;2024-01-11T00:32:16;17.20;;;9.32;;
11962;SDS011;62678;52.130;5.584;2024-01-11T00:34:43;19.23;;;9.18;;
11962;SDS011;62678;52.130;5.584;2024-01-11T00:37:10;19.85;;;10.18;;
11962;SDS011;62678;52.130;5.584;2024-01-11T00:39:39;15.63;;;9.23;;
11962;SDS011;62678;52.130;5.584;2024-01-11T00:42:06;17.92;;;8.93;;
11962;SDS011;62678;52.130;5.584;2024-01-11T00:44:33;17.70;;;10.02;;
11962;SDS011;62678;52.130;5.584;2024-01-11T00:47:01;17.67;;;9.07;;
11962;SDS011;62678;52.130;5.584;2024-01-11T00:49:28;20.40;;;10.20;;
11962;SDS011;62678;52.130;5.584;2024-01-11T00:51:55;16.25;;;9.38;;
11962;SDS011;62678;52.130;5.584;2024-01-11T00:54:22;16.05;;;8.73;;
11962;SDS011;62678;52.130;5.584;2024-01-11T00:56:51;18.08;;;9.32;;
11962;SDS011;62678;52.130;5.584;2024-01-11T00:59:18;21.05;;;10.13;;
11962;SDS011;62678;52.130;5.584;2024-01-11T01:01:49;19.33;;;10.27;;
11962;SDS011;62678;52.130;5.584;2024-01-11T01:04:16;18.55;;;9.95;;
11962;SDS011;62678;52.130;5.584;2024-01-11T01:06:44;20.23;;;10.38;;
11962;SDS011;62678;52.130;5.584;2024-01-11T01:09:11;18.40;;;10.02;;
11962;SDS011;62678;52.130;5.584;2024-01-11T01:11:39;20.55;;;9.98;;
11962;SDS011;62678;52.130;5.584;2024-01-11T01:14:08;17.92;;;9.82;;
11962;SDS011;62678;52.130;5.584;2024-01-11T01:16:35;19.42;;;9.65;;
11962;SDS011;62678;52.130;5.584;2024-01-11T01:19:03;19.45;;;10.90;;
11962;SDS011;62678;52.130;5.584;2024-01-11T01:21:30;19.40;;;9.77;;
11962;SDS011;62678;52.130;5.584;2024-01-11T01:23:57;22.02;;;10.65;;
11962;SDS011;62678;52.130;5.584;2024-01-11T01:26:24;22.55;;;11.02;;
11962;SDS011;62678;52.130;5.584;2024-01-11T01:28:51;20.73;;;10.70;;
11962;SDS011;62678;52.130;5.584;2024-01-11T01:31:21;19.98;;;10.60;;
11962;SDS011;62678;52.130;5.584;2024-01-11T01:33:48;25.85;;;11.60;;
11962;SDS011;62678;52.130;5.584;2024-01-11T01:36:15;20.73;;;10.27;;
11962;SDS011;62678;52.130;5.584;2024-01-11T01:38:42;22.42;;;10.75;;
11962;SDS011;62678;52.130;5.584;2024-01-11T01:41:10;21.20;;;10.98;;
11962;SDS011;62678;52.130;5.584;2024-01-11T01:43:37;21.30;;;11.20;;
11962;SDS011;62678;52.130;5.584;2024-01-11T01:46:05;20.67;;;10.85;;
11962;SDS011;62678;52.130;5.584;2024-01-11T01:48:34;20.63;;;11.20;;
11962;SDS011;62678;52.130;5.584;2024-01-11T01:51:01;22.73;;;11.57;;
11962;SDS011;62678;52.130;5.584;2024-01-11T01:53:29;21.35;;;11.07;;
11962;SDS011;62678;52.130;5.584;2024-01-11T01:55:56;22.65;;;10.85;;
11962;SDS011;62678;52.130;5.584;2024-01-11T01:58:24;20.45;;;10.43;;
11962;SDS011;62678;52.130;5.584;2024-01-11T02:00:51;22.20;;;11.38;;
11962;SDS011;62678;52.130;5.584;2024-01-11T02:03:19;19.17;;;10.23;;
11962;SDS011;62678;52.130;5.584;2024-01-11T02:05:48;20.77;;;10.95;;
11962;SDS011;62678;52.130;5.584;2024-01-11T02:08:16;21.65;;;11.10;;
11962;SDS011;62678;52.130;5.584;2024-01-11T02:10:46;21.73;;;10.70;;
11962;SDS011;62678;52.130;5.584;2024-01-11T02:13:13;22.65;;;11.15;;
11962;SDS011;62678;52.130;5.584;2024-01-11T02:15:40;25.15;;;10.60;;
11962;SDS011;62678;52.130;5.584;2024-01-11T02:18:07;22.55;;;10.93;;
11962;SDS011;62678;52.130;5.584;2024-01-11T02:20:34;20.35;;;10.45;;
11962;SDS011;62678;52.130;5.584;2024-01-11T02:23:03;21.77;;;10.85;;
11962;SDS011;62678;52.130;5.584;2024-01-11T02:25:33;25.30;;;12.18;;
11962;SDS011;62678;52.130;5.584;2024-01-11T02:28:01;24.02;;;11.95;;
11962;SDS011;62678;52.130;5.584;2024-01-11T02:30:28;22.17;;;11.02;;
11962;SDS011;62678;52.130;5.584;2024-01-11T02:32:55;23.63;;;11.60;;
11962;SDS011;62678;52.130;5.584;2024-01-11T02:35:22;25.92;;;11.27;;
11962;SDS011;62678;52.130;5.584;2024-01-11T02:37:50;26.30;;;12.05;;
11962;SDS011;62678;52.130;5.584;2024-01-11T02:40:17;24.35;;;12.30;;
11962;SDS011;62678;52.130;5.584;2024-01-11T02:42:47;25.33;;;11.68;;
11962;SDS011;62678;52.130;5.584;2024-01-11T02:45:14;24.00;;;11.38;;
11962;SDS011;62678;52.130;5.584;2024-01-11T02:47:41;22.60;;;12.18;;
11962;SDS011;62678;52.130;5.584;2024-01-11T02:50:08;26.05;;;12.43;;
11962;SDS011;62678;52.130;5.584;2024-01-11T02:52:37;23.65;;;11.50;;
11962;SDS011;62678;52.130;5.584;2024-01-11T02:55:04;23.00;;;11.73;;
11962;SDS011;62678;52.130;5.584;2024-01-11T02:57:31;25.13;;;13.00;;
11962;SDS011;62678;52.130;5.584;2024-01-11T03:00:00;24.40;;;12.70;;
11962;SDS011;62678;52.130;5.584;2024-01-11T03:02:27;24.40;;;11.85;;
11962;SDS011;62678;52.130;5.584;2024-01-11T03:04:54;24.58;;;12.88;;
11962;SDS011;62678;52.130;5.584;2024-01-11T03:07:22;27.20;;;13.27;;
11962;SDS011;62678;52.130;5.584;2024-01-11T03:09:49;26.02;;;13.20;;
11962;SDS011;62678;52.130;5.584;2024-01-11T03:12:16;26.85;;;12.65;;
11962;SDS011;62678;52.130;5.584;2024-01-11T03:14:43;23.42;;;12.05;;
11962;SDS011;62678;52.130;5.584;2024-01-11T03:17:12;24.98;;;13.02;;
11962;SDS011;62678;52.130;5.584;2024-01-11T03:19:39;27.42;;;13.32;;
11962;SDS011;62678;52.130;5.584;2024-01-11T03:22:06;25.65;;;12.35;;
11962;SDS011;62678;52.130;5.584;2024-01-11T03:24:37;25.13;;;13.25;;
11962;SDS011;62678;52.130;5.584;2024-01-11T03:27:04;28.90;;;13.55;;
11962;SDS011;62678;52.130;5.584;2024-01-11T03:29:32;28.60;;;14.10;;
11962;SDS011;62678;52.130;5.584;2024-01-11T03:31:59;29.13;;;14.20;;
11962;SDS011;62678;52.130;5.584;2024-01-11T03:34:28;23.30;;;13.07;;
11962;SDS011;62678;52.130;5.584;2024-01-11T03:36:55;28.20;;;13.55;;
11962;SDS011;62678;52.130;5.584;2024-01-11T03:39:22;29.88;;;14.73;;
11962;SDS011;62678;52.130;5.584;2024-01-11T03:41:49;26.95;;;13.40;;
11962;SDS011;62678;52.130;5.584;2024-01-11T03:44:16;28.73;;;14.90;;
11962;SDS011;62678;52.130;5.584;2024-01-11T03:46:43;26.80;;;14.40;;
11962;SDS011;62678;52.130;5.584;2024-01-11T03:49:11;29.15;;;13.98;;
11962;SDS011;62678;52.130;5.584;2024-01-11T03:51:39;29.38;;;14.65;;
11962;SDS011;62678;52.130;5.584;2024-01-11T03:54:06;29.48;;;15.15;;
11962;SDS011;62678;52.130;5.584;2024-01-11T03:56:35;29.42;;;14.60;;
11962;SDS011;62678;52.130;5.584;2024-01-11T03:59:04;37.35;;;16.63;;
11962;SDS011;62678;52.130;5.584;2024-01-11T04:01:31;34.53;;;16.42;;
11962;SDS011;62678;52.130;5.584;2024-01-11T04:04:00;34.67;;;16.27;;
11962;SDS011;62678;52.130;5.584;2024-01-11T04:06:27;32.85;;;16.88;;
11962;SDS011;62678;52.130;5.584;2024-01-11T04:08:55;34.70;;;17.20;;
11962;SDS011;62678;52.130;5.584;2024-01-11T04:11:23;33.13;;;16.48;;
11962;SDS011;62678;52.130;5.584;2024-01-11T04:13:50;32.85;;;16.83;;
11962;SDS011;62678;52.130;5.584;2024-01-11T04:16:17;36.58;;;17.85;;
11962;SDS011;62678;52.130;5.584;2024-01-11T04:18:44;36.95;;;18.73;;
11962;SDS011;62678;52.130;5.584;2024-01-11T04:21:19;36.13;;;18.05;;
11962;SDS011;62678;52.130;5.584;2024-01-11T04:23:47;37.05;;;18.40;;
11962;SDS011;62678;52.130;5.584;2024-01-11T04:26:16;42.03;;;19.48;;
11962;SDS011;62678;52.130;5.584;2024-01-11T04:28:43;39.17;;;20.00;;
11962;SDS011;62678;52.130;5.584;2024-01-11T04:31:10;39.92;;;19.58;;
11962;SDS011;62678;52.130;5.584;2024-01-11T04:33:39;37.42;;;18.83;;
11962;SDS011;62678;52.130;5.584;2024-01-11T04:36:06;37.40;;;19.92;;
11962;SDS011;62678;52.130;5.584;2024-01-11T04:38:34;39.58;;;20.27;;
11962;SDS011;62678;52.130;5.584;2024-01-11T04:41:01;40.80;;;20.08;;
11962;SDS011;62678;52.130;5.584;2024-01-11T04:43:30;42.90;;;21.05;;
11962;SDS011;62678;52.130;5.584;2024-01-11T04:45:57;40.38;;;20.75;;
11962;SDS011;62678;52.130;5.584;2024-01-11T04:48:24;45.17;;;20.85;;
11962;SDS011;62678;52.130;5.584;2024-01-11T04:50:51;44.45;;;22.00;;
11962;SDS011;62678;52.130;5.584;2024-01-11T04:53:18;38.50;;;19.52;;
11962;SDS011;62678;52.130;5.584;2024-01-11T04:55:45;43.40;;;21.52;;
11962;SDS011;62678;52.130;5.584;2024-01-11T04:58:12;46.17;;;20.83;;
11962;SDS011;62678;52.130;5.584;2024-01-11T05:00:41;40.35;;;20.77;;
11962;SDS011;62678;52.130;5.584;2024-01-11T05:03:08;46.05;;;22.27;;
11962;SDS011;62678;52.130;5.584;2024-01-11T05:05:35;44.80;;;21.98;;
11962;SDS011;62678;52.130;5.584;2024-01-11T05:08:02;43.20;;;21.58;;
11962;SDS011;62678;52.130;5.584;2024-01-11T05:10:29;45.65;;;22.45;;
11962;SDS011;62678;52.130;5.584;2024-01-11T05:12:57;44.47;;;21.73;;
11962;SDS011;62678;52.130;5.584;2024-01-11T05:15:24;44.70;;;21.65;;
11962;SDS011;62678;52.130;5.584;2024-01-11T05:17:54;44.50;;;21.90;;
11962;SDS011;62678;52.130;5.584;2024-01-11T05:20:21;44.85;;;23.17;;
11962;SDS011;62678;52.130;5.584;2024-01-11T05:22:49;48.67;;;22.35;;
11962;SDS011;62678;52.130;5.584;2024-01-11T05:25:16;46.67;;;21.88;;
11962;SDS011;62678;52.130;5.584;2024-01-11T05:27:43;44.20;;;22.90;;
11962;SDS011;62678;52.130;5.584;2024-01-11T05:30:10;43.67;;;22.10;;
11962;SDS011;62678;52.130;5.584;2024-01-11T05:32:37;45.15;;;22.83;;
11962;SDS011;62678;52.130;5.584;2024-01-11T05:35:06;45.60;;;23.63;;
11962;SDS011;62678;52.130;5.584;2024-01-11T05:37:35;46.35;;;22.90;;
11962;SDS011;62678;52.130;5.584;2024-01-11T05:40:02;44.50;;;22.88;;
11962;SDS011;62678;52.130;5.584;2024-01-11T05:42:30;45.78;;;22.70;;
11962;SDS011;62678;52.130;5.584;2024-01-11T05:44:57;44.60;;;23.00;;
11962;SDS011;62678;52.130;5.584;2024-01-11T05:47:24;44.42;;;22.33;;
11962;SDS011;62678;52.130;5.584;2024-01-11T05:49:51;45.08;;;23.33;;
11962;SDS011;62678;52.130;5.584;2024-01-11T05:52:20;48.22;;;23.40;;
11962;SDS011;62678;52.130;5.584;2024-01-11T05:54:47;45.75;;;23.10;;
11962;SDS011;62678;52.130;5.584;2024-01-11T05:57:14;49.65;;;24.08;;
11962;SDS011;62678;52.130;5.584;2024-01-11T05:59:43;50.83;;;24.65;;
11962;SDS011;62678;52.130;5.584;2024-01-11T06:02:10;48.95;;;24.63;;
11962;SDS011;62678;52.130;5.584;2024-01-11T06:04:38;52.25;;;25.20;;
11962;SDS011;62678;52.130;5.584;2024-01-11T06:07:05;47.05;;;23.67;;
11962;SDS011;62678;52.130;5.584;2024-01-11T06:09:34;49.47;;;24.77;;
11962;SDS011;62678;52.130;5.584;2024-01-11T06:12:01;56.15;;;26.50;;
11962;SDS011;62678;52.130;5.584;2024-01-11T06:14:28;52.72;;;25.75;;
11962;SDS011;62678;52.130;5.584;2024-01-11T06:16:55;53.08;;;26.77;;
11962;SDS011;62678;52.130;5.584;2024-01-11T06:19:23;50.28;;;24.85;;
11962;SDS011;62678;52.130;5.584;2024-01-11T06:21:50;52.50;;;26.10;;
11962;SDS011;62678;52.130;5.584;2024-01-11T06:24:17;51.53;;;25.38;;
11962;SDS011;62678;52.130;5.584;2024-01-11T06:26:45;52.70;;;26.17;;
11962;SDS011;62678;52.130;5.584;2024-01-11T06:29:13;66.32;;;29.70;;
11962;SDS011;62678;52.130;5.584;2024-01-11T06:31:40;60.78;;;28.08;;
11962;SDS011;62678;52.130;5.584;2024-01-11T06:34:07;53.42;;;26.05;;
11962;SDS011;62678;52.130;5.584;2024-01-11T06:36:34;59.47;;;26.30;;
11962;SDS011;62678;52.130;5.584;2024-01-11T06:39:01;54.55;;;26.58;;
11962;SDS011;62678;52.130;5.584;2024-01-11T06:41:29;51.92;;;24.95;;
11962;SDS011;62678;52.130;5.584;2024-01-11T06:43:57;54.60;;;26.10;;
11962;SDS011;62678;52.130;5.584;2024-01-11T06:46:24;50.30;;;25.63;;
11962;SDS011;62678;52.130;5.584;2024-01-11T06:48:52;54.95;;;26.63;;
11962;SDS011;62678;52.130;5.584;2024-01-11T06:51:20;50.78;;;25.85;;
11962;SDS011;62678;52.130;5.584;2024-01-11T06:53:48;55.22;;;26.05;;
11962;SDS011;62678;52.130;5.584;2024-01-11T06:56:15;51.80;;;26.58;;
11962;SDS011;62678;52.130;5.584;2024-01-11T06:58:43;52.05;;;26.35;;
11962;SDS011;62678;52.130;5.584;2024-01-11T07:01:11;55.70;;;26.73;;
11962;SDS011;62678;52.130;5.584;2024-01-11T07:03:39;53.78;;;26.55;;
11962;SDS011;62678;52.130;5.584;2024-01-11T07:06:06;57.40;;;30.98;;
11962;SDS011;62678;52.130;5.584;2024-01-11T07:08:33;55.42;;;28.33;;
11962;SDS011;62678;52.130;5.584;2024-01-11T07:11:01;53.80;;;27.77;;
11962;SDS011;62678;52.130;5.584;2024-01-11T07:13:28;53.45;;;26.38;;
11962;SDS011;62678;52.130;5.584;2024-01-11T07:15:56;54.60;;;27.90;;
11962;SDS011;62678;52.130;5.584;2024-01-11T07:18:25;57.22;;;28.98;;
11962;SDS011;62678;52.130;5.584;2024-01-11T07:20:53;58.65;;;28.35;;
11962;SDS011;62678;52.130;5.584;2024-01-11T07:23:20;60.88;;;28.85;;
11962;SDS011;62678;52.130;5.584;2024-01-11T07:25:47;57.67;;;29.17;;
11962;SDS011;62678;52.130;5.584;2024-01-11T07:28:14;54.50;;;27.10;;
11962;SDS011;62678;52.130;5.584;2024-01-11T07:30:42;57.38;;;29.40;;
11962;SDS011;62678;52.130;5.584;2024-01-11T07:33:10;59.85;;;27.83;;
11962;SDS011;62678;52.130;5.584;2024-01-11T07:35:38;57.75;;;28.10;;
11962;SDS011;62678;52.130;5.584;2024-01-11T07:38:05;59.75;;;27.83;;
11962;SDS011;62678;52.130;5.584;2024-01-11T07:40:33;57.28;;;27.73;;
11962;SDS011;62678;52.130;5.584;2024-01-11T07:43:00;59.88;;;28.75;;
11962;SDS011;62678;52.130;5.584;2024-01-11T07:45:29;62.17;;;29.77;;
11962;SDS011;62678;52.130;5.584;2024-01-11T07:47:56;62.58;;;30.48;;
11962;SDS011;62678;52.130;5.584;2024-01-11T07:50:23;61.63;;;30.33;;
11962;SDS011;62678;52.130;5.584;2024-01-11T07:52:52;61.33;;;29.75;;
11962;SDS011;62678;52.130;5.584;2024-01-11T07:55:20;62.35;;;29.30;;
11962;SDS011;62678;52.130;5.584;2024-01-11T07:57:49;64.85;;;29.85;;
11962;SDS011;62678;52.130;5.584;2024-01-11T08:00:16;63.72;;;31.60;;
11962;SDS011;62678;52.130;5.584;2024-01-11T08:02:44;59.25;;;30.27;;
11962;SDS011;62678;52.130;5.584;2024-01-11T08:05:11;57.45;;;29.17;;
11962;SDS011;62678;52.130;5.584;2024-01-11T08:07:38;60.25;;;30.58;;
11962;SDS011;62678;52.130;5.584;2024-01-11T08:10:08;61.45;;;29.95;;
11962;SDS011;62678;52.130;5.584;2024-01-11T08:12:36;60.80;;;29.98;;
11962;SDS011;62678;52.130;5.584;2024-01-11T08:15:03;55.65;;;28.50;;
11962;SDS011;62678;52.130;5.584;2024-01-11T08:17:30;58.28;;;29.02;;
11962;SDS011;62678;52.130;5.584;2024-01-11T08:19:57;61.88;;;30.80;;
11962;SDS011;62678;52.130;5.584;2024-01-11T08:22:24;62.47;;;30.73;;
11962;SDS011;62678;52.130;5.584;2024-01-11T08:24:53;60.70;;;29.50;;
11962;SDS011;62678;52.130;5.584;2024-01-11T08:27:22;56.63;;;29.17;;
11962;SDS011;62678;52.130;5.584;2024-01-11T08:29:49;60.15;;;29.98;;
11962;SDS011;62678;52.130;5.584;2024-01-11T08:32:16;61.55;;;30.38;;
11962;SDS011;62678;52.130;5.584;2024-01-11T08:34:43;56.35;;;28.85;;
11962;SDS011;62678;52.130;5.584;2024-01-11T08:37:10;61.10;;;30.42;;
11962;SDS011;62678;52.130;5.584;2024-01-11T08:39:38;61.72;;;30.40;;
11962;SDS011;62678;52.130;5.584;2024-01-11T08:42:05;56.72;;;28.55;;
11962;SDS011;62678;52.130;5.584;2024-01-11T08:44:34;60.40;;;29.13;;
11962;SDS011;62678;52.130;5.584;2024-01-11T08:47:01;56.88;;;28.50;;
11962;SDS011;62678;52.130;5.584;2024-01-11T08:49:28;58.25;;;28.77;;
11962;SDS011;62678;52.130;5.584;2024-01-11T08:51:55;56.92;;;28.42;;
11962;SDS011;62678;52.130;5.584;2024-01-11T08:54:23;54.70;;;28.15;;
11962;SDS011;62678;52.130;5.584;2024-01-11T08:56:50;52.90;;;26.55;;
11962;SDS011;62678;52.130;5.584;2024-01-11T08:59:18;53.15;;;26.77;;
11962;SDS011;62678;52.130;5.584;2024-01-11T09:01:46;53.25;;;25.80;;
11962;SDS011;62678;52.130;5.584;2024-01-11T09:04:14;54.35;;;26.42;;
11962;SDS011;62678;52.130;5.584;2024-01-11T09:06:42;55.25;;;26.80;;
11962;SDS011;62678;52.130;5.584;2024-01-11T09:09:10;52.45;;;26.35;;
11962;SDS011;62678;52.130;5.584;2024-01-11T09:11:38;53.63;;;26.73;;
11962;SDS011;62678;52.130;5.584;2024-01-11T09:14:05;53.05;;;26.95;;
11962;SDS011;62678;52.130;5.584;2024-01-11T09:16:36;51.60;;;26.80;;
11962;SDS011;62678;52.130;5.584;2024-01-11T09:19:06;50.85;;;25.23;;
11962;SDS011;62678;52.130;5.584;2024-01-11T09:21:33;53.63;;;26.25;;
11962;SDS011;62678;52.130;5.584;2024-01-11T09:24:00;55.13;;;26.02;;
11962;SDS011;62678;52.130;5.584;2024-01-11T09:26:27;51.53;;;25.40;;
11962;SDS011;62678;52.130;5.584;2024-01-11T09:28:54;47.10;;;23.10;;
11962;SDS011;62678;52.130;5.584;2024-01-11T09:31:21;46.22;;;20.08;;
11962;SDS011;62678;52.130;5.584;2024-01-11T09:33:48;52.90;;;22.38;;
11962;SDS011;62678;52.130;5.584;2024-01-11T09:36:17;53.10;;;21.23;;
11962;SDS011;62678;52.130;5.584;2024-01-11T09:38:44;53.45;;;20.75;;
11962;SDS011;62678;52.130;5.584;2024-01-11T09:41:12;54.47;;;21.98;;
11962;SDS011;62678;52.130;5.584;2024-01-11T09:43:40;61.90;;;23.15;;
11962;SDS011;62678;52.130;5.584;2024-01-11T09:46:07;64.57;;;23.20;;
11962;SDS011;62678;52.130;5.584;2024-01-11T09:48:37;63.47;;;23.65;;
11962;SDS011;62678;52.130;5.584;2024-01-11T09:51:04;61.92;;;22.88;;
11962;SDS011;62678;52.130;5.584;2024-01-11T09:53:36;66.15;;;23.52;;
11962;SDS011;62678;52.130;5.584;2024-01-11T09:56:05;63.05;;;23.52;;
11962;SDS011;62678;52.130;5.584;2024-01-11T09:58:34;61.88;;;24.08;;
11962;SDS011;62678;52.130;5.584;2024-01-11T10:01:02;61.63;;;24.33;;
11962;SDS011;62678;52.130;5.584;2024-01-11T10:03:33;64.05;;;23.80;;
11962;SDS011;62678;52.130;5.584;2024-01-11T10:06:02;62.60;;;23.73;;
11962;SDS011;62678;52.130;5.584;2024-01-11T10:08:29;66.60;;;23.98;;
11962;SDS011;62678;52.130;5.584;2024-01-11T10:10:58;63.95;;;25.30;;
11962;SDS011;62678;52.130;5.584;2024-01-11T10:13:26;68.35;;;24.90;;
11962;SDS011;62678;52.130;5.584;2024-01-11T10:16:04;66.10;;;25.20;;
11962;SDS011;62678;52.130;5.584;2024-01-11T10:18:32;62.17;;;24.15;;
11962;SDS011;62678;52.130;5.584;2024-01-11T10:20:59;63.40;;;24.63;;
11962;SDS011;62678;52.130;5.584;2024-01-11T10:23:26;65.43;;;24.55;;
11962;SDS011;62678;52.130;5.584;2024-01-11T10:25:54;63.65;;;24.73;;
11962;SDS011;62678;52.130;5.584;2024-01-11T10:28:23;61.05;;;24.13;;
11962;SDS011;62678;52.130;5.584;2024-01-11T10:30:50;61.92;;;24.65;;
11962;SDS011;62678;52.130;5.584;2024-01-11T10:33:19;62.17;;;24.38;;
11962;SDS011;62678;52.130;5.584;2024-01-11T10:35:46;62.42;;;24.30;;
11962;SDS011;62678;52.130;5.584;2024-01-11T10:38:14;52.65;;;22.95;;
11962;SDS011;62678;52.130;5.584;2024-01-11T10:40:42;58.58;;;23.42;;
11962;SDS011;62678;52.130;5.584;2024-01-11T10:43:10;58.78;;;23.73;;
11962;SDS011;62678;52.130;5.584;2024-01-11T10:45:39;56.22;;;23.10;;
11962;SDS011;62678;52.130;5.584;2024-01-11T10:48:07;56.67;;;23.55;;
11962;SDS011;62678;52.130;5.584;2024-01-11T10:50:34;49.72;;;21.38;;
11962;SDS011;62678;52.130;5.584;2024-01-11T10:53:03;53.42;;;21.77;;
11962;SDS011;62678;52.130;5.584;2024-01-11T10:55:31;56.03;;;21.80;;
11962;SDS011;62678;52.130;5.584;2024-01-11T10:58:00;54.97;;;22.95;;
11962;SDS011;62678;52.130;5.584;2024-01-11T11:00:27;58.03;;;22.55;;
11962;SDS011;62678;52.130;5.584;2024-01-11T11:02:56;56.03;;;22.73;;
11962;SDS011;62678;52.130;5.584;2024-01-11T11:05:25;57.25;;;22.45;;
11962;SDS011;62678;52.130;5.584;2024-01-11T11:07:52;52.17;;;21.70;;
11962;SDS011;62678;52.130;5.584;2024-01-11T11:10:21;50.88;;;21.92;;
11962;SDS011;62678;52.130;5.584;2024-01-11T11:12:48;49.08;;;21.70;;
11962;SDS011;62678;52.130;5.584;2024-01-11T11:15:16;53.88;;;21.77;;
11962;SDS011;62678;52.130;5.584;2024-01-11T11:17:43;53.10;;;22.35;;
11962;SDS011;62678;52.130;5.584;2024-01-11T11:20:13;52.30;;;22.00;;
11962;SDS011;62678;52.130;5.584;2024-01-11T11:22:41;54.92;;;21.75;;
11962;SDS011;62678;52.130;5.584;2024-01-11T11:25:08;48.80;;;21.80;;
11962;SDS011;62678;52.130;5.584;2024-01-11T11:27:36;49.03;;;20.90;;
11962;SDS011;62678;52.130;5.584;2024-01-11T11:30:04;45.60;;;21.58;;
11962;SDS011;62678;52.130;5.584;2024-01-11T11:32:35;49.83;;;20.98;;
11962;SDS011;62678;52.130;5.584;2024-01-11T11:35:03;45.75;;;20.80;;
11962;SDS011;62678;52.130;5.584;2024-01-11T11:37:31;45.72;;;20.73;;
11962;SDS011;62678;52.130;5.584;2024-01-11T11:39:58;46.88;;;21.00;;
11962;SDS011;62678;52.130;5.584;2024-01-11T11:42:26;45.30;;;20.08;;
11962;SDS011;62678;52.130;5.584;2024-01-11T11:44:53;47.35;;;21.45;;
11962;SDS011;62678;52.130;5.584;2024-01-11T11:47:23;49.85;;;20.10;;
11962;SDS011;62678;52.130;5.584;2024-01-11T11:49:57;39.28;;;19.42;;
11962;SDS011;62678;52.130;5.584;2024-01-11T11:52:25;39.30;;;20.00;;
11962;SDS011;62678;52.130;5.584;2024-01-11T11:54:54;39.20;;;19.42;;
11962;SDS011;62678;52.130;5.584;2024-01-11T11:57:22;42.40;;;20.70;;
11962;SDS011;62678;52.130;5.584;2024-01-11T11:59:49;44.30;;;19.85;;
11962;SDS011;62678;52.130;5.584;2024-01-11T12:02:16;44.70;;;20.67;;
11962;SDS011;62678;52.130;5.584;2024-01-11T12:04:46;45.25;;;21.92;;
11962;SDS011;62678;52.130;5.584;2024-01-11T12:07:13;49.42;;;21.13;;
11962;SDS011;62678;52.130;5.584;2024-01-11T12:09:41;46.15;;;22.52;;
11962;SDS011;62678;52.130;5.584;2024-01-11T12:12:09;41.00;;;20.58;;
11962;SDS011;62678;52.130;5.584;2024-01-11T12:14:36;45.42;;;22.17;;
11962;SDS011;62678;52.130;5.584;2024-01-11T12:17:04;46.30;;;20.80;;
11962;SDS011;62678;52.130;5.584;2024-01-11T12:19:32;46.40;;;21.25;;
11962;SDS011;62678;52.130;5.584;2024-01-11T12:22:00;43.10;;;20.88;;
11962;SDS011;62678;52.130;5.584;2024-01-11T12:24:27;45.88;;;20.75;;
11962;SDS011;62678;52.130;5.584;2024-01-11T12:26:55;46.72;;;21.70;;
11962;SDS011;62678;52.130;5.584;2024-01-11T12:29:23;47.38;;;21.55;;
11962;SDS011;62678;52.130;5.584;2024-01-11T12:31:51;42.75;;;20.75;;
11962;SDS011;62678;52.130;5.584;2024-01-11T12:34:18;42.00;;;20.35;;
11962;SDS011;62678;52.130;5.584;2024-01-11T12:36:46;37.97;;;19.85;;
11962;SDS011;62678;52.130;5.584;2024-01-11T12:39:13;38.60;;;18.98;;
11962;SDS011;62678;52.130;5.584;2024-01-11T12:41:43;37.55;;;19.38;;
11962;SDS011;62678;52.130;5.584;2024-01-11T12:44:10;35.55;;;18.10;;
11962;SDS011;62678;52.130;5.584;2024-01-11T12:46:39;34.28;;;18.10;;
11962;SDS011;62678;52.130;5.584;2024-01-11T12:49:08;34.25;;;18.75;;
11962;SDS011;62678;52.130;5.584;2024-01-11T12:51:36;34.10;;;18.13;;
11962;SDS011;62678;52.130;5.584;2024-01-11T12:54:05;34.97;;;17.90;;
11962;SDS011;62678;52.130;5.584;2024-01-11T12:56:40;36.10;;;18.67;;
11962;SDS011;62678;52.130;5.584;2024-01-11T12:59:07;31.58;;;16.83;;
11962;SDS011;62678;52.130;5.584;2024-01-11T13:01:34;30.55;;;16.63;;
11962;SDS011;62678;52.130;5.584;2024-01-11T13:04:03;32.55;;;16.55;;
11962;SDS011;62678;52.130;5.584;2024-01-11T13:06:31;32.25;;;16.50;;
11962;SDS011;62678;52.130;5.584;2024-01-11T13:08:59;37.22;;;17.02;;
11962;SDS011;62678;52.130;5.584;2024-01-11T13:11:26;65.32;;;33.25;;
11962;SDS011;62678;52.130;5.584;2024-01-11T13:13:53;50.55;;;25.88;;
11962;SDS011;62678;52.130;5.584;2024-01-11T13:16:24;37.38;;;18.27;;
11962;SDS011;62678;52.130;5.584;2024-01-11T13:18:51;35.92;;;19.05;;
11962;SDS011;62678;52.130;5.584;2024-01-11T13:21:20;42.63;;;19.63;;
11962;SDS011;62678;52.130;5.584;2024-01-11T13:23:47;41.42;;;19.00;;
11962;SDS011;62678;52.130;5.584;2024-01-11T13:26:14;35.60;;;18.88;;
11962;SDS011;62678;52.130;5.584;2024-01-11T13:28:41;42.03;;;22.02;;
11962;SDS011;62678;52.130;5.584;2024-01-11T13:31:08;48.83;;;28.05;;
11962;SDS011;62678;52.130;5.584;2024-01-11T13:33:36;45.25;;;26.20;;
11962;SDS011;62678;52.130;5.584;2024-01-11T13:36:04;45.20;;;24.20;;
11962;SDS011;62678;52.130;5.584;2024-01-11T13:38:34;35.72;;;19.85;;
11962;SDS011;62678;52.130;5.584;2024-01-11T13:41:01;36.30;;;20.83;;
11962;SDS011;62678;52.130;5.584;2024-01-11T13:43:28;36.65;;;18.98;;
11962;SDS011;62678;52.130;5.584;2024-01-11T13:45:55;34.47;;;18.27;;
11962;SDS011;62678;52.130;5.584;2024-01-11T13:48:22;35.42;;;18.33;;
11962;SDS011;62678;52.130;5.584;2024-01-11T13:50:50;34.85;;;18.05;;
11962;SDS011;62678;52.130;5.584;2024-01-11T13:53:17;34.92;;;19.25;;
11962;SDS011;62678;52.130;5.584;2024-01-11T13:55:46;34.78;;;17.80;;
11962;SDS011;62678;52.130;5.584;2024-01-11T13:58:13;36.05;;;19.17;;
11962;SDS011;62678;52.130;5.584;2024-01-11T14:00:42;39.95;;;18.95;;
11962;SDS011;62678;52.130;5.584;2024-01-11T14:03:09;38.22;;;19.88;;
11962;SDS011;62678;52.130;5.584;2024-01-11T14:05:36;41.80;;;19.75;;
11962;SDS011;62678;52.130;5.584;2024-01-11T14:08:04;37.00;;;18.67;;
11962;SDS011;62678;52.130;5.584;2024-01-11T14:10:32;38.38;;;19.13;;
11962;SDS011;62678;52.130;5.584;2024-01-11T14:13:01;42.20;;;20.05;;
11962;SDS011;62678;52.130;5.584;2024-01-11T14:15:28;38.42;;;19.50;;
11962;SDS011;62678;52.130;5.584;2024-01-11T14:17:58;39.72;;;20.48;;
11962;SDS011;62678;52.130;5.584;2024-01-11T14:20:26;39.75;;;19.27;;
11962;SDS011;62678;52.130;5.584;2024-01-11T14:22:53;42.28;;;19.35;;
11962;SDS011;62678;52.130;5.584;2024-01-11T14:25:20;41.17;;;20.02;;